createdAt,value
2014-06-16T00:00:03.831Z,19.46
2014-06-16T00:01:08.520Z,19.6
2014-06-16T00:02:13.508Z,19.46
2014-06-16T00:03:18.494Z,19.79
2014-06-16T00:04:23.168Z,19.44
2014-06-16T00:05:28.154Z,19.21
2014-06-16T00:06:33.141Z,19.48
2014-06-16T00:07:37.815Z,19.15
2014-06-16T00:08:42.504Z,19.26
2014-06-16T00:09:47.177Z,19.48
2014-06-16T00:10:51.867Z,19.36
2014-06-16T00:11:56.854Z,19.34
2014-06-16T00:13:01.543Z,19.18
2014-06-16T00:14:06.827Z,19.28
2014-06-16T00:15:11.501Z,19.24
2014-06-16T00:16:16.191Z,19.33
2014-06-16T00:17:20.882Z,19.29
2014-06-16T00:18:25.851Z,19.06
2014-06-16T00:19:30.541Z,19.12
2014-06-16T00:20:35.215Z,19.23
2014-06-16T00:21:39.904Z,19.07
2014-06-16T00:22:45.186Z,19.31
2014-06-16T00:23:49.877Z,19.34
2014-06-16T00:24:54.863Z,19.24
2014-06-16T00:25:59.833Z,19.18
2014-06-16T00:27:04.819Z,19.27
2014-06-16T00:28:09.510Z,19.16
2014-06-16T00:29:14.795Z,19.14
2014-06-16T00:30:19.782Z,19.46
2014-06-16T00:31:24.767Z,19.45
2014-06-16T00:32:29.753Z,19.46
2014-06-16T00:33:34.724Z,19.21
2014-06-16T00:34:39.414Z,19.19
2014-06-16T00:35:44.103Z,19.14
2014-06-16T00:36:48.777Z,19.36
2014-06-16T00:37:53.465Z,19.24
2014-06-16T00:38:58.139Z,19.38
2014-06-16T00:40:02.830Z,19.31
2014-06-16T00:41:07.801Z,19.18
2014-06-16T00:42:12.787Z,19.12
2014-06-16T00:43:17.476Z,19.12
2014-06-16T00:44:22.150Z,19.41
2014-06-16T00:45:26.841Z,19.42
2014-06-16T00:46:31.515Z,19.44
2014-06-16T00:47:36.797Z,19.22
2014-06-16T00:48:41.486Z,19.02
2014-06-16T00:49:46.161Z,19.16
2014-06-16T00:50:51.445Z,19.16
2014-06-16T00:51:56.134Z,19.36
2014-06-16T00:53:00.823Z,19.16
2014-06-16T00:54:05.794Z,19.08
2014-06-16T00:55:10.796Z,19.16
2014-06-16T00:56:15.471Z,19.04
2014-06-16T00:57:20.161Z,18.87
2014-06-16T00:58:25.147Z,18.88
2014-06-16T00:59:29.851Z,18.98
2014-06-16T01:00:34.542Z,18.97
2014-06-16T01:01:39.512Z,18.97
2014-06-16T01:02:44.498Z,18.95
2014-06-16T01:03:49.187Z,19.13
2014-06-16T01:04:53.861Z,18.9
2014-06-16T01:05:58.552Z,18.94
2014-06-16T01:07:03.225Z,18.74
2014-06-16T01:08:07.914Z,18.63
2014-06-16T01:09:12.885Z,18.83
2014-06-16T01:10:17.873Z,18.58
2014-06-16T01:11:22.578Z,18.92
2014-06-16T01:12:27.252Z,18.65
2014-06-16T01:13:31.254Z,18.57
2014-06-16T01:14:35.928Z,18.46
2014-06-16T01:15:40.914Z,18.52
2014-06-16T01:16:45.619Z,18.7
2014-06-16T01:17:50.309Z,18.59
2014-06-16T01:18:55.295Z,18.56
2014-06-16T01:20:00.281Z,18.48
2014-06-16T01:21:04.955Z,18.56
2014-06-16T01:22:09.644Z,18.66
2014-06-16T01:23:14.336Z,18.67
2014-06-16T01:24:19.322Z,18.61
2014-06-16T01:25:24.012Z,18.62
2014-06-16T01:26:28.685Z,18.55
2014-06-16T01:27:33.375Z,18.42
2014-06-16T01:28:38.658Z,18.42
2014-06-16T01:29:43.331Z,18.48
2014-06-16T01:30:48.318Z,18.52
2014-06-16T01:31:52.320Z,18.56
2014-06-16T01:32:56.993Z,18.41
2014-06-16T01:34:01.683Z,18.22
2014-06-16T01:35:06.372Z,18.41
2014-06-16T01:36:11.046Z,18.44
2014-06-16T01:37:16.035Z,18.32
2014-06-16T01:38:20.724Z,18.36
2014-06-16T01:39:25.398Z,18.28
2014-06-16T01:40:30.384Z,18.22
2014-06-16T01:41:35.355Z,18.11
2014-06-16T01:42:40.044Z,18.18
2014-06-16T01:43:44.733Z,18.27
2014-06-16T01:44:49.424Z,18.26
2014-06-16T01:45:54.097Z,18.34
2014-06-16T01:46:58.786Z,17.96
2014-06-16T01:48:03.460Z,18.1
2014-06-16T01:49:08.149Z,18.04
2014-06-16T01:50:13.136Z,18.14
2014-06-16T01:51:18.108Z,18.12
2014-06-16T01:52:23.109Z,18.22
2014-06-16T01:53:28.393Z,18.17
2014-06-16T01:54:33.364Z,18.08
2014-06-16T01:55:38.350Z,17.93
2014-06-16T01:56:43.633Z,18.09
2014-06-16T01:57:48.619Z,18
2014-06-16T01:58:53.590Z,17.93
2014-06-16T01:59:58.577Z,18.02
2014-06-16T02:01:03.249Z,18.17
2014-06-16T02:02:07.940Z,18.22
2014-06-16T02:03:12.629Z,18.08
2014-06-16T02:04:17.321Z,17.92
2014-06-16T02:05:21.995Z,18.06
2014-06-16T02:06:26.683Z,18.17
2014-06-16T02:07:31.655Z,18.22
2014-06-16T02:08:36.345Z,17.84
2014-06-16T02:09:41.033Z,17.66
2014-06-16T02:10:45.707Z,17.68
2014-06-16T02:11:50.693Z,17.74
2014-06-16T02:12:55.383Z,17.86
2014-06-16T02:14:00.057Z,17.95
2014-06-16T02:15:04.746Z,18.11
2014-06-16T02:16:09.420Z,17.85
2014-06-16T02:17:14.109Z,17.96
2014-06-16T02:18:19.082Z,17.74
2014-06-16T02:19:23.771Z,18.06
2014-06-16T02:20:29.055Z,18.08
2014-06-16T02:21:33.728Z,17.98
2014-06-16T02:22:38.417Z,17.93
2014-06-16T02:23:43.107Z,18.09
2014-06-16T02:24:47.796Z,18.07
2014-06-16T02:25:52.486Z,17.83
2014-06-16T02:26:57.175Z,17.6
2014-06-16T02:28:01.849Z,17.84
2014-06-16T02:29:06.539Z,17.84
2014-06-16T02:30:11.228Z,17.92
2014-06-16T02:31:16.217Z,17.7
2014-06-16T02:32:20.891Z,17.85
2014-06-16T02:33:25.580Z,17.78
2014-06-16T02:34:30.269Z,17.93
2014-06-16T02:35:34.942Z,18.1
2014-06-16T02:36:39.633Z,18.15
2014-06-16T02:37:44.618Z,18.18
2014-06-16T02:38:49.293Z,18.42
2014-06-16T02:39:54.280Z,18.42
2014-06-16T02:40:58.953Z,18.28
2014-06-16T02:42:03.644Z,18.24
2014-06-16T02:43:08.317Z,18.21
2014-06-16T02:44:13.303Z,18.22
2014-06-16T02:45:18.290Z,18.28
2014-06-16T02:46:23.276Z,18.19
2014-06-16T02:47:27.950Z,18.25
2014-06-16T02:48:32.639Z,18.16
2014-06-16T02:49:37.610Z,18.26
2014-06-16T02:50:42.300Z,18.07
2014-06-16T02:51:47.270Z,18.04
2014-06-16T02:52:51.960Z,18.02
2014-06-16T02:53:56.945Z,17.8
2014-06-16T02:55:01.636Z,17.8
2014-06-16T02:56:06.310Z,18.07
2014-06-16T02:57:11.295Z,17.98
2014-06-16T02:58:16.283Z,18.1
2014-06-16T02:59:20.973Z,18.28
2014-06-16T03:00:25.662Z,18.26
2014-06-16T03:01:30.352Z,18.12
2014-06-16T03:02:35.026Z,18.19
2014-06-16T03:03:39.715Z,18.24
2014-06-16T03:04:44.404Z,18.32
2014-06-16T03:05:49.078Z,18.25
2014-06-16T03:06:54.361Z,18.1
2014-06-16T03:07:59.051Z,18.12
2014-06-16T03:09:03.724Z,18.17
2014-06-16T03:10:08.414Z,17.94
2014-06-16T03:11:13.385Z,18.1
2014-06-16T03:12:18.388Z,18.18
2014-06-16T03:13:23.062Z,18.22
2014-06-16T03:14:28.049Z,18.15
2014-06-16T03:15:32.723Z,17.98
2014-06-16T03:16:37.412Z,17.99
2014-06-16T03:17:42.085Z,17.86
2014-06-16T03:18:46.774Z,17.88
2014-06-16T03:19:51.761Z,17.64
2014-06-16T03:20:56.733Z,17.56
2014-06-16T03:22:01.718Z,17.55
2014-06-16T03:23:06.407Z,17.36
2014-06-16T03:24:11.098Z,17.68
2014-06-16T03:25:15.772Z,17.6
2014-06-16T03:26:20.462Z,17.44
2014-06-16T03:27:24.464Z,17.39
2014-06-16T03:28:29.155Z,17.43
2014-06-16T03:29:33.829Z,17.28
2014-06-16T03:30:38.517Z,17.51
2014-06-16T03:31:43.208Z,17.48
2014-06-16T03:32:47.881Z,17.57
2014-06-16T03:33:52.570Z,17.32
2014-06-16T03:34:57.556Z,17.51
2014-06-16T03:36:02.544Z,17.4
2014-06-16T03:37:07.218Z,17.56
2014-06-16T03:38:11.907Z,17.37
2014-06-16T03:39:16.581Z,17.21
2014-06-16T03:40:21.567Z,17.31
2014-06-16T03:41:26.257Z,17.36
2014-06-16T03:42:30.931Z,17.02
2014-06-16T03:43:35.917Z,16.95
2014-06-16T03:44:40.888Z,17.09
2014-06-16T03:45:45.577Z,17.32
2014-06-16T03:46:50.267Z,17.24
2014-06-16T03:47:54.955Z,17.08
2014-06-16T03:48:59.629Z,17.1
2014-06-16T03:50:04.320Z,17.07
2014-06-16T03:51:08.993Z,17.22
2014-06-16T03:52:13.682Z,17.32
2014-06-16T03:53:18.358Z,17.32
2014-06-16T03:54:23.048Z,17.17
2014-06-16T03:55:27.737Z,17
2014-06-16T03:56:32.411Z,17.15
2014-06-16T03:57:37.396Z,17.12
2014-06-16T03:58:42.384Z,17.18
2014-06-16T03:59:46.369Z,17.17
2014-06-16T04:00:51.355Z,17.06
2014-06-16T04:01:56.046Z,17.04
2014-06-16T04:03:01.031Z,17.34
2014-06-16T04:04:05.705Z,17.37
2014-06-16T04:05:10.395Z,17.37
2014-06-16T04:06:15.084Z,17.22
2014-06-16T04:07:20.057Z,17.04
2014-06-16T04:08:25.043Z,17.18
2014-06-16T04:09:29.716Z,17.19
2014-06-16T04:10:35.000Z,17.08
2014-06-16T04:11:39.674Z,17.18
2014-06-16T04:12:44.661Z,17.36
2014-06-16T04:13:49.647Z,17.48
2014-06-16T04:14:54.321Z,17.16
2014-06-16T04:15:59.010Z,17.14
2014-06-16T04:17:03.684Z,17.05
2014-06-16T04:18:08.671Z,17.18
2014-06-16T04:19:13.642Z,17.43
2014-06-16T04:20:18.331Z,17.34
2014-06-16T04:21:23.005Z,17.26
2014-06-16T04:22:27.694Z,16.91
2014-06-16T04:23:32.368Z,17.08
2014-06-16T04:24:37.058Z,17.49
2014-06-16T04:25:41.748Z,17.26
2014-06-16T04:26:46.734Z,17.36
2014-06-16T04:27:51.407Z,17.34
2014-06-16T04:28:56.097Z,17.36
2014-06-16T04:30:00.786Z,17.34
2014-06-16T04:31:05.460Z,17.33
2014-06-16T04:32:10.447Z,17.51
2014-06-16T04:33:15.433Z,17.43
2014-06-16T04:34:20.421Z,17.45
2014-06-16T04:35:25.094Z,17.5
2014-06-16T04:36:29.784Z,17.2
2014-06-16T04:37:34.458Z,17.46
2014-06-16T04:38:39.148Z,17.48
2014-06-16T04:39:43.821Z,17.72
2014-06-16T04:40:48.807Z,17.6
2014-06-16T04:41:53.481Z,17.85
2014-06-16T04:42:58.468Z,17.99
2014-06-16T04:44:03.157Z,18.13
2014-06-16T04:45:08.425Z,17.93
2014-06-16T04:46:13.114Z,18.04
2014-06-16T04:47:18.086Z,18.1
2014-06-16T04:48:22.792Z,18.28
2014-06-16T04:49:27.466Z,18.36
2014-06-16T04:50:32.451Z,18.26
2014-06-16T04:51:37.126Z,18.5
2014-06-16T04:52:41.816Z,18.72
2014-06-16T04:53:46.489Z,18.94
2014-06-16T04:54:51.772Z,19.02
2014-06-16T04:55:56.461Z,18.87
2014-06-16T04:57:01.151Z,18.89
2014-06-16T04:58:05.825Z,18.91
2014-06-16T04:59:10.811Z,18.98
2014-06-16T05:00:15.501Z,18.98
2014-06-16T05:01:20.488Z,19.1
2014-06-16T05:02:25.178Z,19.17
2014-06-16T05:03:29.852Z,19.16
2014-06-16T05:04:34.542Z,19.36
2014-06-16T05:05:39.230Z,19.14
2014-06-16T05:06:43.905Z,19.54
2014-06-16T05:07:48.203Z,19.66
2014-06-16T05:08:52.893Z,19.42
2014-06-16T05:09:57.567Z,19.38
2014-06-16T05:11:02.255Z,19.4
2014-06-16T05:12:07.226Z,19.45
2014-06-16T05:13:12.213Z,19.62
2014-06-16T05:14:17.200Z,19.51
2014-06-16T05:15:21.874Z,19.77
2014-06-16T05:16:26.564Z,20
2014-06-16T05:17:31.238Z,19.98
2014-06-16T05:18:36.225Z,20.22
2014-06-16T05:19:40.914Z,20.28
2014-06-16T05:20:45.588Z,20.15
2014-06-16T05:21:50.574Z,20.27
2014-06-16T05:22:55.263Z,20.34
2014-06-16T05:23:59.547Z,20.33
2014-06-16T05:25:04.236Z,20.47
2014-06-16T05:26:09.223Z,20.7
2014-06-16T05:27:14.506Z,20.68
2014-06-16T05:28:19.493Z,20.7
2014-06-16T05:29:24.183Z,20.76
2014-06-16T05:30:28.858Z,20.73
2014-06-16T05:31:33.547Z,20.86
2014-06-16T05:32:38.237Z,20.94
2014-06-16T05:33:42.925Z,20.97
2014-06-16T05:34:47.911Z,21.12
2014-06-16T05:35:52.617Z,21.08
2014-06-16T05:36:57.290Z,21.05
2014-06-16T05:38:01.980Z,21.1
2014-06-16T05:39:06.669Z,21.33
2014-06-16T05:40:11.375Z,21.42
2014-06-16T05:41:16.104Z,21.4
2014-06-16T05:42:21.170Z,21.47
2014-06-16T05:43:25.883Z,21.26
2014-06-16T05:44:30.591Z,21.01
2014-06-16T05:45:35.592Z,19.91
2014-06-16T05:46:40.279Z,19.85
2014-06-16T05:47:44.981Z,20.52
2014-06-16T05:48:49.685Z,20.98
2014-06-16T05:49:54.663Z,21.21
2014-06-16T05:50:59.357Z,21.4
2014-06-16T05:52:04.052Z,21.2
2014-06-16T05:53:08.730Z,21.5
2014-06-16T05:54:12.736Z,20.84
2014-06-16T05:55:17.429Z,20.56
2014-06-16T05:56:22.109Z,21.28
2014-06-16T05:57:27.112Z,21.1
2014-06-16T05:58:31.803Z,21.27
2014-06-16T05:59:36.494Z,21.68
2014-06-16T06:00:41.169Z,21.66
2014-06-16T06:01:45.858Z,21.92
2014-06-16T06:02:50.549Z,22.21
2014-06-16T06:03:55.238Z,22.55
2014-06-16T06:05:00.226Z,22.38
2014-06-16T06:06:05.228Z,21.61
2014-06-16T06:07:09.917Z,21.48
2014-06-16T06:08:14.606Z,22.36
2014-06-16T06:09:19.298Z,23.87
2014-06-16T06:10:23.283Z,25.78
2014-06-16T06:11:27.973Z,28
2014-06-16T06:12:32.663Z,29.87
2014-06-16T06:13:37.353Z,30.99
2014-06-16T06:14:42.026Z,31.85
2014-06-16T06:15:46.715Z,30.72
2014-06-16T06:16:51.405Z,31.17
2014-06-16T06:17:56.094Z,32.24
2014-06-16T06:19:00.783Z,33.62
2014-06-16T06:20:05.754Z,33.99
2014-06-16T06:21:10.444Z,34.69
2014-06-16T06:22:15.429Z,35.4
2014-06-16T06:23:20.433Z,35.48
2014-06-16T06:24:25.421Z,35.95
2014-06-16T06:25:30.109Z,35.31
2014-06-16T06:26:34.799Z,35.96
2014-06-16T06:27:39.785Z,36.23
2014-06-16T06:28:44.475Z,36.55
2014-06-16T06:29:49.180Z,36.8
2014-06-16T06:30:53.869Z,36.94
2014-06-16T06:31:58.559Z,37.19
2014-06-16T06:33:03.263Z,37.96
2014-06-16T06:34:08.546Z,36.9
2014-06-16T06:35:13.548Z,34.26
2014-06-16T06:36:18.238Z,31.34
2014-06-16T06:37:22.929Z,28.74
2014-06-16T06:38:27.619Z,27.58
2014-06-16T06:39:32.308Z,27.38
2014-06-16T06:40:36.998Z,27.25
2014-06-16T06:41:42.000Z,26.98
2014-06-16T06:42:46.689Z,26.1
2014-06-16T06:43:51.676Z,26.06
2014-06-16T06:44:56.662Z,26.01
2014-06-16T06:46:01.350Z,25.74
2014-06-16T06:47:06.040Z,25.28
2014-06-16T06:48:11.026Z,23.36
2014-06-16T06:49:15.716Z,23.74
2014-06-16T06:50:20.407Z,23.77
2014-06-16T06:51:25.097Z,23.08
2014-06-16T06:52:29.771Z,23.81
2014-06-16T06:53:34.460Z,24.21
2014-06-16T06:54:39.150Z,23.65
2014-06-16T06:55:43.839Z,23.68
2014-06-16T06:56:48.529Z,23.63
2014-06-16T06:57:53.514Z,22.85
2014-06-16T06:58:58.205Z,23.18
2014-06-16T07:00:02.894Z,23.68
2014-06-16T07:01:07.584Z,23.93
2014-06-16T07:02:12.273Z,23.88
2014-06-16T07:03:16.962Z,22.94
2014-06-16T07:04:21.934Z,23.51
2014-06-16T07:05:26.624Z,23.7
2014-06-16T07:06:31.313Z,23.92
2014-06-16T07:07:36.003Z,23.98
2014-06-16T07:08:40.692Z,24.2
2014-06-16T07:09:45.381Z,24.11
2014-06-16T07:10:49.368Z,23.4
2014-06-16T07:11:54.059Z,23.49
2014-06-16T07:12:59.045Z,23.56
2014-06-16T07:14:03.735Z,23.62
2014-06-16T07:15:08.424Z,23.68
2014-06-16T07:16:13.129Z,24.06
2014-06-16T07:17:17.803Z,24.06
2014-06-16T07:18:22.493Z,23.58
2014-06-16T07:19:26.495Z,22.63
2014-06-16T07:20:31.481Z,22.78
2014-06-16T07:21:36.170Z,22.09
2014-06-16T07:22:40.876Z,23
2014-06-16T07:23:45.862Z,23.47
2014-06-16T07:24:50.551Z,23.45
2014-06-16T07:25:55.241Z,23.72
2014-06-16T07:26:59.929Z,24.1
2014-06-16T07:28:04.901Z,24.09
2014-06-16T07:29:09.592Z,23.02
2014-06-16T07:30:14.280Z,21.72
2014-06-16T07:31:19.268Z,22.23
2014-06-16T07:32:23.957Z,23.84
2014-06-16T07:33:28.647Z,24.84
2014-06-16T07:34:33.335Z,25.25
2014-06-16T07:35:38.025Z,25.28
2014-06-16T07:36:43.011Z,25
2014-06-16T07:37:47.701Z,24.7
2014-06-16T07:38:52.391Z,25.16
2014-06-16T07:39:57.376Z,25.23
2014-06-16T07:41:02.067Z,25.6
2014-06-16T07:42:06.756Z,26.03
2014-06-16T07:43:11.429Z,25.66
2014-06-16T07:44:16.119Z,25.48
2014-06-16T07:45:20.808Z,25.41
2014-06-16T07:46:25.515Z,25.4
2014-06-16T07:47:30.205Z,25.49
2014-06-16T07:48:34.894Z,25.1
2014-06-16T07:49:39.584Z,24.81
2014-06-16T07:50:44.272Z,24.92
2014-06-16T07:51:48.963Z,24.94
2014-06-16T07:52:53.652Z,23.08
2014-06-16T07:53:58.325Z,23.81
2014-06-16T07:55:03.015Z,24.02
2014-06-16T07:56:07.704Z,23.56
2014-06-16T07:57:12.409Z,23.12
2014-06-16T07:58:17.083Z,23.62
2014-06-16T07:59:21.775Z,24.23
2014-06-16T08:00:26.464Z,24.42
2014-06-16T08:01:31.154Z,24.64
2014-06-16T08:02:35.843Z,24.11
2014-06-16T08:03:40.830Z,24.29
2014-06-16T08:04:45.518Z,24.44
2014-06-16T08:05:50.208Z,24.8
2014-06-16T08:06:54.881Z,24.48
2014-06-16T08:07:59.571Z,24.61
2014-06-16T08:09:04.260Z,24.72
2014-06-16T08:10:08.966Z,24.64
2014-06-16T08:11:13.655Z,24.83
2014-06-16T08:12:18.329Z,24.46
2014-06-16T08:13:23.020Z,24.4
2014-06-16T08:14:27.710Z,24.65
2014-06-16T08:15:32.696Z,25.03
2014-06-16T08:16:37.386Z,24.96
2014-06-16T08:17:42.074Z,24.95
2014-06-16T08:18:46.764Z,24.4
2014-06-16T08:19:51.453Z,24.44
2014-06-16T08:20:56.143Z,23.99
2014-06-16T08:22:00.832Z,24.15
2014-06-16T08:23:05.522Z,23.59
2014-06-16T08:24:10.211Z,23.94
2014-06-16T08:25:14.901Z,24.52
2014-06-16T08:26:19.590Z,24.68
2014-06-16T08:27:24.579Z,24.67
2014-06-16T08:28:28.580Z,24.24
2014-06-16T08:29:33.269Z,22.98
2014-06-16T08:30:38.240Z,23.82
2014-06-16T08:31:42.929Z,24.1
2014-06-16T08:32:47.619Z,24.51
2014-06-16T08:33:52.308Z,24.56
2014-06-16T08:34:57.295Z,24.85
2014-06-16T08:36:01.984Z,24.8
2014-06-16T08:37:06.971Z,24.57
2014-06-16T08:38:11.645Z,24.58
2014-06-16T08:39:16.334Z,24.07
2014-06-16T08:40:21.039Z,24.4
2014-06-16T08:41:26.028Z,24.56
2014-06-16T08:42:30.029Z,24.86
2014-06-16T08:43:34.702Z,24.9
2014-06-16T08:44:39.393Z,24.72
2014-06-16T08:45:44.378Z,25.01
2014-06-16T08:46:49.068Z,25.16
2014-06-16T08:47:53.757Z,24.76
2014-06-16T08:48:58.446Z,24.62
2014-06-16T08:50:03.137Z,24.83
2014-06-16T08:51:08.124Z,24.94
2014-06-16T08:52:12.813Z,24.9
2014-06-16T08:53:17.488Z,25.21
2014-06-16T08:54:22.192Z,24.59
2014-06-16T08:55:26.867Z,23.62
2014-06-16T08:56:31.556Z,24.19
2014-06-16T08:57:36.245Z,24.29
2014-06-16T08:58:40.935Z,24.21
2014-06-16T08:59:45.640Z,24.26
2014-06-16T09:00:50.329Z,24.22
2014-06-16T09:01:55.019Z,24.43
2014-06-16T09:03:00.005Z,23.96
2014-06-16T09:04:04.991Z,23.52
2014-06-16T09:05:09.680Z,23.84
2014-06-16T09:06:14.370Z,24.1
2014-06-16T09:07:19.044Z,23.74
2014-06-16T09:08:23.750Z,24.24
2014-06-16T09:09:28.424Z,24.86
2014-06-16T09:10:33.114Z,25.16
2014-06-16T09:11:38.100Z,25.39
2014-06-16T09:12:43.102Z,25.64
2014-06-16T09:13:47.792Z,25.28
2014-06-16T09:14:52.481Z,25.55
2014-06-16T09:15:57.171Z,25.69
2014-06-16T09:17:02.454Z,25.54
2014-06-16T09:18:07.143Z,25.83
2014-06-16T09:19:11.848Z,25.82
2014-06-16T09:20:16.537Z,26.02
2014-06-16T09:21:21.523Z,25.93
2014-06-16T09:22:26.527Z,25.42
2014-06-16T09:23:31.515Z,25.36
2014-06-16T09:24:36.203Z,24.54
2014-06-16T09:25:40.893Z,24.84
2014-06-16T09:26:45.582Z,24.96
2014-06-16T09:27:50.272Z,25.3
2014-06-16T09:28:54.961Z,25.26
2014-06-16T09:29:59.650Z,25.1
2014-06-16T09:31:04.340Z,25.55
2014-06-16T09:32:09.014Z,25.8
2014-06-16T09:33:13.704Z,26.12
2014-06-16T09:34:18.409Z,25.33
2014-06-16T09:35:23.083Z,24.97
2014-06-16T09:36:28.070Z,24.52
2014-06-16T09:37:32.760Z,25.09
2014-06-16T09:38:37.449Z,25.3
2014-06-16T09:39:42.139Z,25.67
2014-06-16T09:40:46.827Z,24.98
2014-06-16T09:41:51.518Z,25.5
2014-06-16T09:42:56.504Z,25.88
2014-06-16T09:44:01.490Z,26.19
2014-06-16T09:45:06.179Z,24.99
2014-06-16T09:46:10.868Z,25.24
2014-06-16T09:47:15.855Z,25.39
2014-06-16T09:48:20.529Z,25.41
2014-06-16T09:49:25.236Z,25.5
2014-06-16T09:50:29.910Z,26.04
2014-06-16T09:51:34.599Z,26
2014-06-16T09:52:39.289Z,26.09
2014-06-16T09:53:43.978Z,26.29
2014-06-16T09:54:48.668Z,26.38
2014-06-16T09:55:53.357Z,26.83
2014-06-16T09:56:58.047Z,26.56
2014-06-16T09:58:02.048Z,26.24
2014-06-16T09:59:06.737Z,26.18
2014-06-16T10:00:11.427Z,26.35
2014-06-16T10:01:16.100Z,26.86
2014-06-16T10:02:20.790Z,27
2014-06-16T10:03:25.778Z,26.71
2014-06-16T10:04:30.483Z,26.73
2014-06-16T10:05:34.485Z,27.06
2014-06-16T10:06:39.472Z,26.24
2014-06-16T10:07:44.160Z,26.23
2014-06-16T10:08:49.148Z,26.29
2014-06-16T10:09:54.134Z,26.59
2014-06-16T10:10:58.824Z,25.61
2014-06-16T10:12:02.825Z,26
2014-06-16T10:13:07.514Z,25.82
2014-06-16T10:14:12.204Z,25.85
2014-06-16T10:15:16.893Z,26
2014-06-16T10:16:21.583Z,26.24
2014-06-16T10:17:26.274Z,26.35
2014-06-16T10:18:30.964Z,26.26
2014-06-16T10:19:35.653Z,26.22
2014-06-16T10:20:40.343Z,26.06
2014-06-16T10:21:45.032Z,25.91
2014-06-16T10:22:49.722Z,24.93
2014-06-16T10:23:54.411Z,23.24
2014-06-16T10:24:59.100Z,24.35
2014-06-16T10:26:03.789Z,24.58
2014-06-16T10:27:08.479Z,24.39
2014-06-16T10:28:13.168Z,24.5
2014-06-16T10:29:17.873Z,24.62
2014-06-16T10:30:22.860Z,24.36
2014-06-16T10:31:27.551Z,24.25
2014-06-16T10:32:32.241Z,24.61
2014-06-16T10:33:36.930Z,24.84
2014-06-16T10:34:41.916Z,25.38
2014-06-16T10:35:46.590Z,25.5
2014-06-16T10:36:51.280Z,25.91
2014-06-16T10:37:56.001Z,26.38
2014-06-16T10:39:00.003Z,26.6
2014-06-16T10:40:04.692Z,26.89
2014-06-16T10:41:09.678Z,26.69
2014-06-16T10:42:14.368Z,26.81
2014-06-16T10:43:19.058Z,27.1
2014-06-16T10:44:23.747Z,27.61
2014-06-16T10:45:28.436Z,26.96
2014-06-16T10:46:33.126Z,27.14
2014-06-16T10:47:37.815Z,27.2
2014-06-16T10:48:42.506Z,27.18
2014-06-16T10:49:47.195Z,27.32
2014-06-16T10:50:51.838Z,26.95
2014-06-16T10:51:56.887Z,27.25
2014-06-16T10:53:01.576Z,27.04
2014-06-16T10:54:06.297Z,27.16
2014-06-16T10:55:10.987Z,26.84
2014-06-16T10:56:15.676Z,27.03
2014-06-16T10:57:20.367Z,27.33
2014-06-16T10:58:25.056Z,26.69
2014-06-16T10:59:29.746Z,26.31
2014-06-16T11:00:34.435Z,26.69
2014-06-16T11:01:39.422Z,26.88
2014-06-16T11:02:44.110Z,26.5
2014-06-16T11:03:49.096Z,26.36
2014-06-16T11:04:53.802Z,25.99
2014-06-16T11:05:58.491Z,25.71
2014-06-16T11:07:03.182Z,26.08
2014-06-16T11:08:08.169Z,25.9
2014-06-16T11:09:12.857Z,25.72
2014-06-16T11:10:17.845Z,25.65
2014-06-16T11:11:22.534Z,25.75
2014-06-16T11:12:27.223Z,25.85
2014-06-16T11:13:31.913Z,25.91
2014-06-16T11:14:36.602Z,25.34
2014-06-16T11:15:41.291Z,25.14
2014-06-16T11:16:46.278Z,25.7
2014-06-16T11:17:50.967Z,25.86
2014-06-16T11:18:55.657Z,26.01
2014-06-16T11:20:00.346Z,26.14
2014-06-16T11:21:05.035Z,24.54
2014-06-16T11:22:09.724Z,25.04
2014-06-16T11:23:15.008Z,25.77
2014-06-16T11:24:19.697Z,26.1
2014-06-16T11:25:24.386Z,25.81
2014-06-16T11:26:29.375Z,25.8
2014-06-16T11:27:34.064Z,26.02
2014-06-16T11:28:38.754Z,26.45
2014-06-16T11:29:43.740Z,26.15
2014-06-16T11:30:48.430Z,26.41
2014-06-16T11:31:53.119Z,26.07
2014-06-16T11:32:57.809Z,26.11
2014-06-16T11:34:02.498Z,26.38
2014-06-16T11:35:07.188Z,26.16
2014-06-16T11:36:11.876Z,25.9
2014-06-16T11:37:16.581Z,25.84
2014-06-16T11:38:21.272Z,25.96
2014-06-16T11:39:25.570Z,26.19
2014-06-16T11:40:30.261Z,25.81
2014-06-16T11:41:35.248Z,25.83
2014-06-16T11:42:39.953Z,25.09
2014-06-16T11:43:44.939Z,25.02
2014-06-16T11:44:49.629Z,24.65
2014-06-16T11:45:54.615Z,25.1
2014-06-16T11:46:59.304Z,25.57
2014-06-16T11:48:03.994Z,25.85
2014-06-16T11:49:08.683Z,25.93
2014-06-16T11:50:13.389Z,25.58
2014-06-16T11:51:18.374Z,25.79
2014-06-16T11:52:23.063Z,26.32
2014-06-16T11:53:28.036Z,26.55
2014-06-16T11:54:32.727Z,26.62
2014-06-16T11:55:37.415Z,25.94
2014-06-16T11:56:42.105Z,26.38
2014-06-16T11:57:46.794Z,26.5
2014-06-16T11:58:51.484Z,26.06
2014-06-16T11:59:56.173Z,26.42
2014-06-16T12:01:00.863Z,26.61
2014-06-16T12:02:04.880Z,26.56
2014-06-16T12:03:09.569Z,26.32
2014-06-16T12:04:14.243Z,26.27
2014-06-16T12:05:18.932Z,26.91
2014-06-16T12:06:23.622Z,26.99
2014-06-16T12:07:28.329Z,26.94
2014-06-16T12:08:33.018Z,26.42
2014-06-16T12:09:37.708Z,26.61
2014-06-16T12:10:42.397Z,26.35
2014-06-16T12:11:47.384Z,25.88
2014-06-16T12:12:52.073Z,25.88
2014-06-16T12:13:56.762Z,26.13
2014-06-16T12:15:01.451Z,26.24
2014-06-16T12:16:06.439Z,26
2014-06-16T12:17:11.111Z,25.89
2014-06-16T12:18:16.098Z,25.89
2014-06-16T12:19:20.788Z,25.69
2014-06-16T12:20:25.477Z,25.73
2014-06-16T12:21:30.168Z,25.52
2014-06-16T12:22:34.873Z,25.58
2014-06-16T12:23:39.860Z,26.06
2014-06-16T12:24:44.549Z,26.14
2014-06-16T12:25:49.240Z,26.25
2014-06-16T12:26:53.928Z,25.08
2014-06-16T12:27:58.916Z,25.73
2014-06-16T12:29:03.605Z,26.14
2014-06-16T12:30:08.279Z,26.11
2014-06-16T12:31:12.984Z,26.02
2014-06-16T12:32:16.986Z,26
2014-06-16T12:33:21.660Z,26.04
2014-06-16T12:34:26.350Z,25.77
2014-06-16T12:35:31.039Z,25.68
2014-06-16T12:36:35.728Z,25.27
2014-06-16T12:37:40.715Z,25.52
2014-06-16T12:38:45.404Z,25.82
2014-06-16T12:39:50.093Z,26.21
2014-06-16T12:40:55.079Z,26.38
2014-06-16T12:41:59.770Z,26.44
2014-06-16T12:43:04.458Z,26.32
2014-06-16T12:44:09.445Z,26.46
2014-06-16T12:45:14.134Z,26.67
2014-06-16T12:46:18.136Z,26.76
2014-06-16T12:47:22.826Z,26.93
2014-06-16T12:48:27.814Z,26.84
2014-06-16T12:49:32.504Z,26.74
2014-06-16T12:50:37.193Z,26.45
2014-06-16T12:51:41.883Z,26.52
2014-06-16T12:52:46.571Z,26.13
2014-06-16T12:53:51.292Z,26.42
2014-06-16T12:54:56.294Z,26.56
2014-06-16T12:56:00.983Z,26.8
2014-06-16T12:57:05.673Z,26.8
2014-06-16T12:58:10.659Z,26.99
2014-06-16T12:59:15.349Z,27.19
2014-06-16T13:00:20.038Z,27.41
2014-06-16T13:01:25.025Z,27.26
2014-06-16T13:02:29.716Z,27.38
2014-06-16T13:03:34.702Z,27.66
2014-06-16T13:04:39.392Z,27.67
2014-06-16T13:05:44.378Z,27.78
2014-06-16T13:06:49.067Z,27.54
2014-06-16T13:07:53.756Z,27.49
2014-06-16T13:08:58.743Z,27.42
2014-06-16T13:10:03.448Z,27.02
2014-06-16T13:11:08.137Z,27.23
2014-06-16T13:12:12.827Z,27.42
2014-06-16T13:13:17.515Z,27.06
2014-06-16T13:14:22.190Z,27.07
2014-06-16T13:15:26.880Z,26.89
2014-06-16T13:16:32.180Z,26.78
2014-06-16T13:17:36.869Z,26.74
2014-06-16T13:18:41.560Z,26.62
2014-06-16T13:19:46.232Z,26.66
2014-06-16T13:20:50.923Z,26.77
2014-06-16T13:21:55.627Z,26.43
2014-06-16T13:23:00.317Z,26.36
2014-06-16T13:24:04.990Z,26.24
2014-06-16T13:25:09.696Z,26.41
2014-06-16T13:26:14.369Z,26.3
2014-06-16T13:27:19.075Z,26.23
2014-06-16T13:28:23.747Z,26.47
2014-06-16T13:29:28.456Z,26.66
2014-06-16T13:30:33.442Z,26.42
2014-06-16T13:31:38.131Z,26.21
2014-06-16T13:32:42.821Z,26.26
2014-06-16T13:33:47.807Z,26.51
2014-06-16T13:34:52.497Z,26.36
2014-06-16T13:35:57.186Z,26.42
2014-06-16T13:37:01.860Z,26.54
2014-06-16T13:38:06.565Z,26.58
2014-06-16T13:39:11.552Z,26.55
2014-06-16T13:40:16.241Z,26.2
2014-06-16T13:41:20.916Z,26.5
2014-06-16T13:42:25.917Z,25.28
2014-06-16T13:43:30.608Z,26.05
2014-06-16T13:44:34.609Z,26.17
2014-06-16T13:45:39.298Z,26.17
2014-06-16T13:46:43.989Z,26.11
2014-06-16T13:47:48.677Z,26.18
2014-06-16T13:48:53.367Z,26.15
2014-06-16T13:49:58.353Z,26.37
2014-06-16T13:51:03.339Z,26.16
2014-06-16T13:52:08.029Z,26.1
2014-06-16T13:53:13.000Z,26.14
2014-06-16T13:54:17.689Z,26.16
2014-06-16T13:55:22.379Z,26.2
2014-06-16T13:56:27.364Z,26.28
2014-06-16T13:57:32.055Z,26.27